North Valley Stream, New York
Current Conditions -  °F | °C
As of 8:51 PM on Monday 22 Dec 2014 (Local Time) from KJFK Reporting Station
Light Rain Light Rain  
Wind Chill: 41°   Ceiling: 1500
Heat Index: 46°   Visibility: 10mi
Dew Point: 41°   Wind: 12mph
Humidity: 83%   Direction: 70°ENE
Pressure: 30.21"   Gusts: NA
Location:  40.6745°N, 73.7041°W
Report Text: KJFK 230151Z 07010KT 10SM -RA BKN015 OVC019 08/05 A3021 RMK AO2 RAB33 SLP229 P0000 T00780050 $
Loading
Personal Weather Stations






























Interactive Weather Map New forecast layout! Learn more

10-Day Weather Forecast

Advertisements
Track Severe Weather on mobile